createdAt,value
2018-05-24T00:01:49.319Z,10.93
2018-05-24T00:04:16.842Z,9.17
2018-05-24T00:06:44.389Z,10.53
2018-05-24T00:09:11.912Z,9.80
2018-05-24T00:11:40.341Z,11.10
2018-05-24T00:14:07.867Z,10.53
2018-05-24T00:16:35.463Z,10.60
2018-05-24T00:19:02.977Z,11.27
2018-05-24T00:21:31.381Z,10.70
2018-05-24T00:23:58.887Z,10.80
2018-05-24T00:26:26.422Z,10.63
2018-05-24T00:28:54.006Z,10.63
2018-05-24T00:31:21.507Z,10.10
2018-05-24T00:33:49.066Z,9.93
2018-05-24T00:36:16.577Z,10.27
2018-05-24T00:38:44.181Z,10.60
2018-05-24T00:41:11.680Z,11.70
2018-05-24T00:43:39.206Z,11.20
2018-05-24T00:46:06.714Z,11.67
2018-05-24T00:48:35.076Z,11.03
2018-05-24T00:51:02.613Z,10.23
2018-05-24T00:53:30.136Z,9.87
2018-05-24T00:55:57.665Z,12.17
2018-05-24T00:58:25.963Z,11.00
2018-05-24T01:00:53.478Z,10.73
2018-05-24T01:03:20.993Z,10.37
2018-05-24T01:05:48.557Z,11.17
2018-05-24T01:08:16.081Z,11.67
2018-05-24T01:10:44.349Z,10.50
2018-05-24T01:13:12.632Z,12.00
2018-05-24T01:15:40.167Z,11.73
2018-05-24T01:18:07.682Z,11.70
2018-05-24T01:20:35.196Z,11.73
2018-05-24T01:23:03.475Z,11.73
2018-05-24T01:25:31.878Z,12.07
2018-05-24T01:27:59.414Z,11.93
2018-05-24T01:30:26.985Z,12.57
2018-05-24T01:32:54.490Z,12.83
2018-05-24T01:35:22.129Z,11.60
2018-05-24T01:37:51.473Z,11.37
2018-05-24T01:40:19.788Z,9.83
2018-05-24T01:42:47.434Z,11.57
2018-05-24T01:45:14.969Z,11.60
2018-05-24T01:47:43.294Z,11.13
2018-05-24T01:50:10.837Z,12.00
2018-05-24T01:52:38.392Z,12.80
2018-05-24T01:55:05.922Z,12.13
2018-05-24T01:57:34.193Z,13.53
2018-05-24T02:00:02.475Z,12.97
2018-05-24T02:02:29.982Z,12.70
2018-05-24T02:04:57.520Z,11.57
2018-05-24T02:07:25.035Z,11.07
2018-05-24T02:09:53.328Z,12.13
2018-05-24T02:12:20.844Z,11.10
2018-05-24T02:14:48.451Z,11.07
2018-05-24T02:17:15.964Z,11.80
2018-05-24T02:19:43.501Z,12.60
2018-05-24T02:22:10.999Z,12.13
2018-05-24T02:24:39.291Z,10.93
2018-05-24T02:27:06.829Z,10.83
2018-05-24T02:29:35.134Z,11.30
2018-05-24T02:32:02.678Z,11.60
2018-05-24T02:34:30.191Z,10.67
2018-05-24T02:36:57.726Z,9.30
2018-05-24T02:39:25.307Z,9.53
2018-05-24T02:41:52.819Z,10.07
2018-05-24T02:44:20.390Z,9.13
2018-05-24T02:46:47.990Z,10.00
2018-05-24T02:49:15.513Z,10.00
2018-05-24T02:51:43.012Z,9.70
2018-05-24T02:54:10.545Z,10.07
2018-05-24T02:56:38.029Z,9.10
2018-05-24T02:59:06.282Z,8.37
2018-05-24T03:01:33.845Z,9.60
2018-05-24T03:04:01.439Z,9.57
2018-05-24T03:06:29.021Z,10.80
2018-05-24T03:08:56.540Z,9.87
2018-05-24T03:11:24.862Z,10.67
2018-05-24T03:13:52.363Z,10.83
2018-05-24T03:16:19.871Z,11.70
2018-05-24T03:18:47.387Z,11.20
2018-05-24T03:21:15.669Z,11.27
2018-05-24T03:23:43.967Z,10.87
2018-05-24T03:26:11.466Z,10.10
2018-05-24T03:28:39.002Z,10.53
2018-05-24T03:31:06.661Z,11.30
2018-05-24T03:33:34.188Z,10.87
2018-05-24T03:36:01.685Z,11.20
2018-05-24T03:38:29.217Z,11.30
2018-05-24T03:40:56.713Z,12.90
2018-05-24T03:43:24.413Z,11.50
2018-05-24T03:45:51.924Z,13.03
2018-05-24T03:48:19.472Z,11.53
2018-05-24T03:50:46.981Z,12.40
2018-05-24T03:53:14.512Z,10.27
2018-05-24T03:55:42.102Z,10.63
2018-05-24T03:58:09.678Z,10.03
2018-05-24T04:00:49.189Z,10.80
2018-05-24T04:03:29.355Z,11.87
2018-05-24T04:05:56.921Z,11.50
2018-05-24T04:08:24.424Z,10.77
2018-05-24T04:10:53.557Z,11.10
2018-05-24T04:13:21.082Z,14.23
2018-05-24T04:15:48.613Z,12.20
2018-05-24T04:18:16.122Z,12.30
2018-05-24T04:20:44.406Z,11.50
2018-05-24T04:23:11.962Z,12.60
2018-05-24T04:25:39.471Z,12.87
2018-05-24T04:28:06.992Z,11.80
2018-05-24T04:30:34.501Z,11.37
2018-05-24T04:33:02.051Z,12.20
2018-05-24T04:35:29.561Z,10.90
2018-05-24T04:37:57.091Z,11.40
2018-05-24T04:40:25.354Z,11.53
2018-05-24T04:42:52.850Z,11.60
2018-05-24T04:45:20.392Z,9.93
2018-05-24T04:47:47.912Z,14.30
2018-05-24T04:50:15.437Z,11.90
2018-05-24T04:52:42.955Z,10.93
2018-05-24T04:55:11.271Z,11.10
2018-05-24T04:57:38.836Z,11.23
2018-05-24T05:00:06.356Z,10.80
2018-05-24T05:02:33.880Z,12.93
2018-05-24T05:05:01.416Z,11.87
2018-05-24T05:07:28.942Z,12.07
2018-05-24T05:09:56.484Z,11.30
2018-05-24T05:12:24.021Z,12.93
2018-05-24T05:14:52.278Z,13.80
2018-05-24T05:17:19.797Z,14.00
2018-05-24T05:19:47.294Z,13.63
2018-05-24T05:22:14.900Z,15.63
2018-05-24T05:24:42.458Z,14.77
2018-05-24T05:27:09.969Z,14.57
2018-05-24T05:29:37.468Z,15.13
2018-05-24T05:32:04.994Z,14.00
2018-05-24T05:34:33.280Z,14.20
2018-05-24T05:37:01.546Z,14.00
2018-05-24T05:39:29.815Z,13.70
2018-05-24T05:41:58.232Z,14.13
2018-05-24T05:44:25.729Z,15.87
2018-05-24T05:46:53.249Z,15.30
2018-05-24T05:49:20.772Z,15.70
2018-05-24T05:51:49.041Z,15.50
2018-05-24T05:54:17.334Z,15.37
2018-05-24T05:56:44.890Z,16.03
2018-05-24T05:59:12.432Z,16.37
2018-05-24T06:01:40.722Z,15.33
2018-05-24T06:04:08.229Z,15.07
2018-05-24T06:06:35.776Z,16.10
2018-05-24T06:09:03.622Z,16.07
2018-05-24T06:11:31.128Z,16.60
2018-05-24T06:13:58.726Z,16.57
2018-05-24T06:16:26.181Z,15.67
2018-05-24T06:18:53.701Z,16.80
2018-05-24T06:21:21.305Z,16.07
2018-05-24T06:23:48.816Z,16.70
2018-05-24T06:26:16.371Z,16.83
2018-05-24T06:28:44.655Z,17.63
2018-05-24T06:31:12.934Z,17.17
2018-05-24T06:33:41.221Z,17.20
2018-05-24T06:36:09.496Z,17.63
2018-05-24T06:38:37.082Z,16.50
2018-05-24T06:41:04.818Z,17.10
2018-05-24T06:43:32.401Z,17.00
2018-05-24T06:45:59.924Z,16.90
2018-05-24T06:48:28.204Z,15.00
2018-05-24T06:50:56.478Z,16.27
2018-05-24T06:53:24.781Z,16.80
2018-05-24T06:55:52.322Z,16.00
2018-05-24T06:58:19.844Z,16.43
2018-05-24T07:00:47.381Z,16.97
2018-05-24T07:03:14.908Z,16.80
2018-05-24T07:05:42.469Z,15.80
2018-05-24T07:08:10.110Z,17.83
2018-05-24T07:10:37.614Z,17.30
2018-05-24T07:13:05.110Z,16.00
2018-05-24T07:15:33.384Z,17.30
2018-05-24T07:18:01.670Z,16.63
2018-05-24T07:20:29.971Z,15.57
2018-05-24T07:22:57.508Z,15.10
2018-05-24T07:25:25.030Z,15.60
2018-05-24T07:27:52.569Z,17.20
2018-05-24T07:30:20.071Z,19.33
2018-05-24T07:32:47.616Z,18.03
2018-05-24T07:35:15.913Z,18.60
2018-05-24T07:37:43.512Z,19.90
2018-05-24T07:40:11.135Z,19.90
2018-05-24T07:42:38.663Z,19.77
2018-05-24T07:45:07.032Z,20.10
2018-05-24T07:47:34.554Z,19.60
2018-05-24T07:50:02.085Z,20.10
2018-05-24T07:52:29.586Z,22.33
2018-05-24T07:54:57.167Z,20.67
2018-05-24T07:57:24.667Z,21.20
2018-05-24T07:59:52.244Z,22.27
2018-05-24T08:02:19.751Z,21.60
2018-05-24T08:04:48.020Z,21.50
2018-05-24T08:07:16.327Z,23.40
2018-05-24T08:09:43.825Z,25.43
2018-05-24T08:12:11.338Z,24.77
2018-05-24T08:14:38.876Z,24.23
2018-05-24T08:17:06.366Z,23.50
2018-05-24T08:19:33.878Z,23.80
2018-05-24T08:22:02.161Z,25.33
2018-05-24T08:24:30.462Z,24.60
2018-05-24T08:26:57.984Z,26.50
2018-05-24T08:29:26.433Z,25.77
2018-05-24T08:31:53.954Z,24.47
2018-05-24T08:34:21.661Z,25.60
2018-05-24T08:36:49.261Z,24.33
2018-05-24T08:39:16.824Z,25.90
2018-05-24T08:41:44.374Z,25.20
2018-05-24T08:44:11.890Z,26.17
2018-05-24T08:46:39.418Z,24.40
2018-05-24T08:49:07.048Z,24.97
2018-05-24T08:51:34.615Z,25.60
2018-05-24T08:54:02.129Z,24.40
2018-05-24T08:56:30.521Z,26.27
2018-05-24T08:58:58.807Z,25.07
2018-05-24T09:01:27.219Z,24.60
2018-05-24T09:03:54.612Z,24.57
2018-05-24T09:06:22.225Z,23.43
2018-05-24T09:08:49.762Z,25.50
2018-05-24T09:11:17.274Z,24.40
2018-05-24T09:13:44.771Z,24.80
2018-05-24T09:16:12.295Z,24.40
2018-05-24T09:18:39.891Z,23.30
2018-05-24T09:21:07.465Z,23.87
2018-05-24T09:23:35.019Z,24.97
2018-05-24T09:26:02.563Z,25.30
2018-05-24T09:28:30.135Z,25.60
2018-05-24T09:30:57.713Z,24.70
2018-05-24T09:33:25.249Z,24.77
2018-05-24T09:35:52.802Z,23.83
2018-05-24T09:38:20.320Z,24.50
2018-05-24T09:40:47.842Z,26.00
2018-05-24T09:43:15.349Z,26.83
2018-05-24T09:45:43.628Z,27.07
2018-05-24T09:48:12.034Z,26.07
2018-05-24T09:50:39.548Z,27.40
2018-05-24T09:53:07.865Z,26.27
2018-05-24T09:55:35.357Z,26.83
2018-05-24T09:58:02.920Z,26.73
2018-05-24T10:00:30.540Z,25.87
2018-05-24T10:02:58.036Z,27.87
2018-05-24T10:05:25.564Z,26.27
2018-05-24T10:07:53.081Z,27.00
2018-05-24T10:10:21.359Z,26.43
2018-05-24T10:12:48.913Z,28.07
2018-05-24T10:15:17.199Z,27.00
2018-05-24T10:17:45.630Z,25.80
2018-05-24T10:20:13.143Z,26.37
2018-05-24T10:22:40.634Z,27.60
2018-05-24T10:25:08.167Z,25.77
2018-05-24T10:27:35.696Z,25.03
2018-05-24T10:30:03.966Z,25.07
2018-05-24T10:32:32.274Z,26.20
2018-05-24T10:34:59.834Z,26.80
2018-05-24T10:37:27.395Z,25.70
2018-05-24T10:39:54.933Z,25.20
2018-05-24T10:42:22.448Z,24.40
2018-05-24T10:44:49.986Z,25.87
2018-05-24T10:47:17.495Z,25.50
2018-05-24T10:49:44.996Z,25.50
2018-05-24T10:52:12.516Z,25.57
2018-05-24T10:54:40.014Z,25.43
2018-05-24T10:57:07.625Z,26.03
2018-05-24T10:59:35.190Z,26.17
2018-05-24T11:02:03.586Z,25.40
2018-05-24T11:04:31.104Z,24.90
2018-05-24T11:06:59.492Z,23.60
2018-05-24T11:09:27.045Z,23.47
2018-05-24T11:11:55.346Z,25.13
2018-05-24T11:14:22.878Z,24.57
2018-05-24T11:16:51.150Z,23.40
2018-05-24T11:19:18.736Z,24.80
2018-05-24T11:21:46.224Z,26.20
2018-05-24T11:24:13.773Z,24.20
2018-05-24T11:26:41.269Z,24.20
2018-05-24T11:29:09.558Z,24.30
2018-05-24T11:31:37.074Z,24.03
2018-05-24T11:34:05.489Z,23.30
2018-05-24T11:36:33.080Z,24.07
2018-05-24T11:39:00.599Z,24.60
2018-05-24T11:41:28.895Z,25.63
2018-05-24T11:43:56.389Z,23.40
2018-05-24T11:46:23.974Z,22.37
2018-05-24T11:48:51.524Z,22.73
2018-05-24T11:51:19.033Z,21.33
2018-05-24T11:53:46.551Z,22.23
2018-05-24T11:56:14.813Z,21.80
2018-05-24T11:58:42.345Z,21.80
2018-05-24T12:01:09.838Z,23.03
2018-05-24T12:03:38.120Z,20.57
2018-05-24T12:06:06.385Z,21.67
2018-05-24T12:08:34.001Z,21.20
2018-05-24T12:11:01.525Z,22.30
2018-05-24T12:13:29.041Z,22.63
2018-05-24T12:15:56.567Z,22.13
2018-05-24T12:18:24.191Z,22.47
2018-05-24T12:20:52.594Z,22.13
2018-05-24T12:23:20.111Z,22.20
2018-05-24T12:25:47.676Z,22.50
2018-05-24T12:28:15.950Z,21.90
2018-05-24T12:30:44.254Z,22.10
2018-05-24T12:33:11.797Z,21.33
2018-05-24T12:35:39.387Z,20.00
2018-05-24T12:38:06.828Z,21.80
2018-05-24T12:40:34.355Z,20.93
2018-05-24T12:43:02.643Z,19.83
2018-05-24T12:45:30.157Z,19.00
2018-05-24T12:47:57.676Z,17.73
2018-05-24T12:50:25.182Z,17.77
2018-05-24T12:52:52.780Z,17.17
2018-05-24T12:55:20.284Z,17.73
2018-05-24T12:57:48.091Z,17.30
2018-05-24T13:00:15.518Z,18.20
2018-05-24T13:02:43.062Z,18.87
2018-05-24T13:05:10.559Z,17.63
2018-05-24T13:07:38.114Z,17.47
2018-05-24T13:10:06.387Z,16.50
2018-05-24T13:12:34.688Z,16.23
2018-05-24T13:15:02.215Z,15.93
2018-05-24T13:17:30.625Z,15.60
2018-05-24T13:19:58.124Z,15.70
2018-05-24T13:22:25.712Z,17.40
2018-05-24T13:24:54.005Z,15.30
2018-05-24T13:27:21.552Z,15.33
2018-05-24T13:29:49.111Z,15.37
2018-05-24T13:32:16.642Z,16.03
2018-05-24T13:34:44.209Z,16.20
2018-05-24T13:37:12.496Z,16.47
2018-05-24T13:39:40.025Z,18.10
2018-05-24T13:42:08.421Z,15.93
2018-05-24T13:44:36.694Z,14.70
2018-05-24T13:47:05.042Z,17.90
2018-05-24T13:49:32.544Z,16.33
2018-05-24T13:52:00.114Z,14.30
2018-05-24T13:54:27.632Z,15.80
2018-05-24T13:56:55.937Z,16.20
2018-05-24T13:59:23.563Z,17.83
2018-05-24T14:01:51.913Z,14.57
2018-05-24T14:04:19.403Z,14.97
2018-05-24T14:06:47.737Z,14.77
2018-05-24T14:09:15.268Z,14.43
2018-05-24T14:11:42.873Z,15.20
2018-05-24T14:14:10.407Z,12.80
2018-05-24T14:16:37.984Z,12.33
2018-05-24T14:19:05.493Z,14.20
2018-05-24T14:21:33.033Z,13.83
2018-05-24T14:24:01.343Z,15.43
2018-05-24T14:26:28.862Z,14.73
2018-05-24T14:28:57.164Z,15.10
2018-05-24T14:31:24.650Z,16.17
2018-05-24T14:33:52.266Z,16.07
2018-05-24T14:36:19.848Z,16.53
2018-05-24T14:38:47.396Z,16.83
2018-05-24T14:41:14.932Z,15.67
2018-05-24T14:43:43.235Z,15.67
2018-05-24T14:46:10.733Z,15.13
2018-05-24T14:48:38.331Z,15.13
2018-05-24T14:51:05.888Z,15.77
2018-05-24T14:53:33.413Z,26.80
2018-05-24T14:56:00.913Z,15.53
2018-05-24T14:58:28.451Z,14.10
2018-05-24T15:00:56.734Z,13.80
2018-05-24T15:03:24.236Z,13.90
2018-05-24T15:05:52.632Z,12.90
2018-05-24T15:08:20.231Z,12.80
2018-05-24T15:10:47.805Z,16.97
2018-05-24T15:13:27.343Z,14.60
2018-05-24T15:15:54.899Z,13.40
2018-05-24T15:18:22.404Z,13.83
2018-05-24T15:20:49.932Z,13.70
2018-05-24T15:23:17.441Z,15.43
2018-05-24T15:25:45.747Z,12.63
2018-05-24T15:28:13.308Z,19.93
2018-05-24T15:30:40.835Z,13.20
2018-05-24T15:33:09.116Z,13.80
2018-05-24T15:35:36.653Z,14.80
2018-05-24T15:38:04.944Z,15.63
2018-05-24T15:40:32.484Z,18.50
2018-05-24T15:43:00.773Z,16.27
2018-05-24T15:45:29.067Z,17.87
2018-05-24T15:47:56.575Z,17.93
2018-05-24T15:50:24.078Z,16.37
2018-05-24T15:52:51.618Z,15.73
2018-05-24T15:55:19.899Z,14.87
2018-05-24T15:57:47.423Z,14.63
2018-05-24T16:00:15.750Z,14.10
2018-05-24T16:02:43.277Z,15.57
2018-05-24T16:05:11.670Z,15.60
2018-05-24T16:07:39.195Z,15.53
2018-05-24T16:10:06.731Z,15.20
2018-05-24T16:12:34.252Z,15.93
2018-05-24T16:15:01.777Z,16.40
2018-05-24T16:17:30.035Z,16.73
2018-05-24T16:19:57.643Z,16.27
2018-05-24T16:22:25.142Z,17.53
2018-05-24T16:24:54.538Z,16.10
2018-05-24T16:27:22.037Z,22.00
2018-05-24T16:29:50.325Z,18.13
2018-05-24T16:32:17.867Z,15.90
2018-05-24T16:34:46.135Z,15.63
2018-05-24T16:37:14.448Z,16.53
2018-05-24T16:39:42.043Z,16.80
2018-05-24T16:42:09.561Z,24.27
2018-05-24T16:44:37.075Z,16.10
2018-05-24T16:47:05.362Z,15.77
2018-05-24T16:49:33.659Z,15.53
2018-05-24T16:52:01.158Z,16.57
2018-05-24T16:54:28.823Z,15.30
2018-05-24T16:56:56.258Z,18.40
2018-05-24T16:59:23.794Z,18.23
2018-05-24T17:01:51.379Z,18.50
2018-05-24T17:04:18.890Z,18.80
2018-05-24T17:06:46.393Z,17.57
2018-05-24T17:09:13.903Z,19.47
2018-05-24T17:11:41.426Z,16.77
2018-05-24T17:14:08.936Z,19.57
2018-05-24T17:16:36.464Z,18.80
2018-05-24T17:19:04.735Z,20.23
2018-05-24T17:21:33.012Z,18.20
2018-05-24T17:24:01.318Z,18.83
2018-05-24T17:26:28.830Z,20.03
2018-05-24T17:28:56.341Z,20.27
2018-05-24T17:31:35.200Z,19.67
2018-05-24T17:34:02.732Z,19.30
2018-05-24T17:36:30.248Z,19.73
2018-05-24T17:38:57.787Z,20.57
2018-05-24T17:41:26.093Z,20.00
2018-05-24T17:43:53.581Z,15.90
2018-05-24T17:46:21.093Z,15.93
2018-05-24T17:48:48.876Z,15.37
2018-05-24T17:51:16.468Z,16.17
2018-05-24T17:53:43.996Z,16.60
2018-05-24T17:56:11.509Z,18.03
2018-05-24T17:58:39.792Z,14.13
2018-05-24T18:01:08.050Z,12.20
2018-05-24T18:03:35.560Z,11.80
2018-05-24T18:06:03.088Z,12.50
2018-05-24T18:08:30.615Z,11.60
2018-05-24T18:10:58.209Z,11.07
2018-05-24T18:13:25.743Z,10.43
2018-05-24T18:15:53.274Z,9.60
2018-05-24T18:18:20.795Z,10.80
2018-05-24T18:20:48.307Z,9.70
2018-05-24T18:23:16.676Z,10.17
2018-05-24T18:25:44.249Z,17.23
2018-05-24T18:28:12.560Z,8.90
2018-05-24T18:30:40.054Z,9.33
2018-05-24T18:33:09.088Z,9.60
2018-05-24T18:35:36.639Z,9.70
2018-05-24T18:38:04.183Z,8.33
2018-05-24T18:40:32.701Z,8.50
2018-05-24T18:43:00.295Z,10.10
2018-05-24T18:45:28.808Z,8.40
2018-05-24T18:47:57.191Z,8.70
2018-05-24T18:50:25.450Z,10.30
2018-05-24T18:52:53.758Z,8.83
2018-05-24T18:55:21.328Z,8.90
2018-05-24T18:57:48.841Z,8.10
2018-05-24T19:00:17.170Z,8.60
2018-05-24T19:02:44.671Z,8.80
2018-05-24T19:05:12.252Z,10.10
2018-05-24T19:07:39.832Z,8.00
2018-05-24T19:10:07.352Z,8.70
2018-05-24T19:12:35.621Z,8.00
2018-05-24T19:15:03.873Z,9.17
2018-05-24T19:17:31.422Z,10.40
2018-05-24T19:19:59.791Z,9.17
2018-05-24T19:22:27.336Z,8.83
2018-05-24T19:24:54.851Z,9.17
2018-05-24T19:27:23.146Z,8.97
2018-05-24T19:29:50.658Z,13.17
2018-05-24T19:32:18.180Z,10.70
2018-05-24T19:34:45.751Z,8.80
2018-05-24T19:37:13.251Z,8.30
2018-05-24T19:39:40.769Z,10.73
2018-05-24T19:42:08.306Z,8.30
2018-05-24T19:44:35.828Z,4.90
2018-05-24T19:47:04.128Z,4.80
2018-05-24T19:49:31.651Z,4.27
2018-05-24T19:51:59.928Z,4.20
2018-05-24T19:54:28.215Z,4.53
2018-05-24T19:56:56.523Z,2.30
2018-05-24T19:59:24.024Z,2.27
2018-05-24T20:01:51.554Z,2.50
2018-05-24T20:04:19.435Z,1.93
2018-05-24T20:06:47.295Z,1.90
2018-05-24T20:09:15.262Z,1.80
2018-05-24T20:11:43.128Z,1.60
2018-05-24T20:14:10.988Z,1.70
2018-05-24T20:16:38.855Z,2.17
2018-05-24T20:19:06.725Z,1.50
2018-05-24T20:21:35.404Z,1.50
2018-05-24T20:24:03.269Z,1.43
2018-05-24T20:26:31.145Z,1.60
2018-05-24T20:28:59.105Z,1.50
2018-05-24T20:31:26.970Z,1.37
2018-05-24T20:33:54.939Z,1.73
2018-05-24T20:36:22.897Z,1.70
2018-05-24T20:38:50.761Z,1.70
2018-05-24T20:41:18.627Z,1.80
2018-05-24T20:43:46.217Z,1.70
2018-05-24T20:46:14.534Z,1.80
2018-05-24T20:48:42.042Z,1.87
2018-05-24T20:51:10.298Z,2.00
2018-05-24T20:53:37.836Z,1.70
2018-05-24T20:56:05.351Z,1.77
2018-05-24T20:58:32.875Z,2.40
2018-05-24T21:01:00.361Z,1.90
2018-05-24T21:03:28.632Z,2.10
2018-05-24T21:05:56.883Z,1.87
2018-05-24T21:08:24.383Z,2.20
2018-05-24T21:10:51.939Z,2.00
2018-05-24T21:13:19.447Z,2.40
2018-05-24T21:15:46.946Z,2.87
2018-05-24T21:18:14.442Z,2.40
2018-05-24T21:20:41.930Z,2.63
2018-05-24T21:23:09.435Z,2.10
2018-05-24T21:25:36.946Z,3.03
2018-05-24T21:28:05.206Z,3.13
2018-05-24T21:30:32.714Z,3.07
2018-05-24T21:33:00.224Z,3.57
2018-05-24T21:35:27.947Z,3.27
2018-05-24T21:37:55.450Z,3.80
2018-05-24T21:40:23.751Z,3.17
2018-05-24T21:42:51.301Z,3.10
2018-05-24T21:45:18.796Z,3.00
2018-05-24T21:47:46.313Z,3.33
2018-05-24T21:50:14.565Z,3.30
2018-05-24T21:52:42.066Z,3.10
2018-05-24T21:55:09.588Z,3.03
2018-05-24T21:57:37.879Z,3.53
2018-05-24T22:00:06.141Z,3.43
2018-05-24T22:02:34.426Z,2.80
2018-05-24T22:05:02.690Z,3.37
2018-05-24T22:07:31.038Z,2.93
2018-05-24T22:09:58.525Z,3.30
2018-05-24T22:12:26.816Z,2.70
2018-05-24T22:14:54.309Z,2.60
2018-05-24T22:17:21.827Z,2.57
2018-05-24T22:19:49.326Z,2.40
2018-05-24T22:22:16.814Z,2.70
2018-05-24T22:24:45.201Z,3.57
2018-05-24T22:27:13.469Z,2.50
2018-05-24T22:29:41.747Z,2.03
2018-05-24T22:32:10.335Z,1.87
2018-05-24T22:34:38.589Z,2.10
2018-05-24T22:37:06.196Z,2.00
2018-05-24T22:39:33.696Z,2.13
2018-05-24T22:42:01.242Z,2.13
2018-05-24T22:44:28.872Z,1.80
2018-05-24T22:46:56.386Z,2.20
2018-05-24T22:49:24.755Z,1.67
2018-05-24T22:51:52.278Z,1.80
2018-05-24T22:54:19.821Z,1.93
2018-05-24T22:56:47.348Z,2.13
2018-05-24T22:59:15.621Z,1.97
2018-05-24T23:01:43.998Z,2.00
2018-05-24T23:04:12.262Z,1.73
2018-05-24T23:06:40.535Z,1.90
2018-05-24T23:09:08.832Z,1.90
2018-05-24T23:11:36.449Z,2.20
2018-05-24T23:14:05.628Z,1.70
2018-05-24T23:16:33.168Z,2.20
2018-05-24T23:19:00.669Z,2.00
2018-05-24T23:21:28.274Z,1.87
2018-05-24T23:23:55.766Z,2.30
2018-05-24T23:26:23.363Z,1.83
2018-05-24T23:28:51.637Z,1.80
2018-05-24T23:31:19.932Z,1.80
2018-05-24T23:33:47.450Z,2.07
2018-05-24T23:36:14.995Z,2.03
2018-05-24T23:38:42.501Z,1.80
2018-05-24T23:41:10.012Z,2.10
2018-05-24T23:43:37.514Z,1.90
2018-05-24T23:46:05.016Z,2.00
2018-05-24T23:48:32.536Z,1.90
2018-05-24T23:51:00.029Z,2.10
2018-05-24T23:53:27.662Z,1.90
2018-05-24T23:55:55.197Z,2.00
2018-05-24T23:58:22.714Z,2.20
